Westminster, MD

1:31 PM EDT on July 27, 2017 (GMT -0400)
Carroll County Regional-Poage

Weather History for KDMW - March, 2013

Change the Weather History Date:

Wednesday, March 27, 2013

  Actual Average (KTHV) Record (KTHV)
Temperature  
Mean Temperature 40 °F -  
Max Temperature 46 °F 0 °F 82 °F (1998)
Min Temperature 35 °F - 14 °F (2014)
Degree Days  
Heating Degree Days 24    
Moisture  
Dew Point 28 °F    
Average Humidity 63    
Maximum Humidity 87    
Minimum Humidity 39    
Precipitation  
Precipitation 0.01 in - - ()
Sea Level Pressure  
Sea Level Pressure 30.02 in    
Wind  
Wind Speed 10 mph (WNW)    
Max Wind Speed 20 mph    
Max Gust Speed 31 mph    
Visibility 10 miles    
Events Rain    
Averages and records for this station are not official NWS values.
T = Trace of Precipitation, MM = Missing Value Source: NWS Daily Summary

Daily Weather History Graph

Daily Weather History Graph

Search for Another Location

Airport or City:

Trip Planner

Search our weather history database for the weather conditions in past years. The results will help you decide how hot, cold, wet, or windy it might be!

Date:

Astronomy

Mar. 27, 2013 Rise Set
Actual Time 6:59 AM EDT 7:27 PM EDT
Civil Twilight 6:32 AM EDT 7:54 PM EDT
Nautical Twilight 6:01 AM EDT 8:26 PM EDT
Astronomical Twilight 5:28 AM EDT 8:58 PM EDT
Moon 8:08 PM EDT 6:49 AM EDT
Length of Visible Light 13h 21m
Length of Day
12h 27m
Full, 100% of the Moon is Illuminated
Mar 27
Full
Apr 3
Last Quarter
Apr 10
New
Apr 18
First Quarter
Apr 25
Full

Hourly Weather History & Observations

Time (EDT) Temp. Windchill Dew Point Humidity Pressure Visibility Wind Dir Wind Speed Gust Speed Precip Events Conditions
12:20 AM 39.2 °F 33.0 °F 28.4 °F 65% 29.97 in 10.0 mi WNW 9.2 mph - N/A   Overcast
12:40 AM 39.2 °F 34.2 °F 28.4 °F 65% 29.97 in 10.0 mi West 6.9 mph - N/A   Overcast
1:00 AM 39.2 °F 35.0 °F 30.2 °F 70% 29.97 in 10.0 mi West 5.8 mph - N/A   Overcast
1:20 AM 39.2 °F 33.0 °F 30.2 °F 70% 29.97 in 10.0 mi West 9.2 mph - N/A   Overcast
1:40 AM 39.2 °F 33.6 °F 28.4 °F 65% 29.98 in 10.0 mi West 8.1 mph - N/A   Overcast
2:00 AM 39.2 °F 34.2 °F 30.2 °F 70% 29.97 in 10.0 mi West 6.9 mph - N/A   Overcast
2:20 AM 37.4 °F 32.8 °F 28.4 °F 70% 29.97 in 10.0 mi West 5.8 mph - N/A   Overcast
2:40 AM 37.4 °F 32.8 °F 30.2 °F 75% 29.97 in 10.0 mi West 5.8 mph - N/A   Overcast
3:00 AM 37.4 °F 32.1 °F 28.4 °F 70% 29.97 in 10.0 mi WNW 6.9 mph - N/A   Overcast
3:20 AM 37.4 °F 31.4 °F 28.4 °F 70% 29.97 in 10.0 mi WNW 8.1 mph - N/A   Overcast
3:40 AM 37.4 °F 30.8 °F 28.4 °F 70% 29.97 in 10.0 mi WNW 9.2 mph - N/A   Overcast
4:00 AM 37.4 °F 31.4 °F 28.4 °F 70% 29.97 in 10.0 mi WNW 8.1 mph - N/A   Overcast
4:20 AM 37.4 °F 32.8 °F 26.6 °F 65% 29.97 in 10.0 mi WNW 5.8 mph - N/A   Overcast
4:40 AM 37.4 °F 32.1 °F 28.4 °F 70% 29.97 in 10.0 mi WNW 6.9 mph - N/A   Overcast
5:00 AM 37.4 °F 33.8 °F 26.6 °F 65% 29.97 in 10.0 mi West 4.6 mph - N/A   Overcast
5:20 AM 37.4 °F 32.1 °F 28.4 °F 70% 29.97 in 10.0 mi West 6.9 mph - N/A   Overcast
5:40 AM 37.4 °F 30.3 °F 28.4 °F 70% 29.98 in 10.0 mi WNW 10.4 mph - N/A   Overcast
6:00 AM 37.4 °F 30.3 °F 28.4 °F 70% 29.98 in 10.0 mi West 10.4 mph - N/A   Mostly Cloudy
6:20 AM 35.6 °F 28.6 °F 28.4 °F 75% 29.98 in 10.0 mi West 9.2 mph - N/A   Scattered Clouds
7:00 AM 35.6 °F 28.6 °F 28.4 °F 75% 30.00 in 10.0 mi West 9.2 mph - N/A   Overcast
7:20 AM 35.6 °F 28.0 °F 28.4 °F 75% 30.01 in 10.0 mi West 10.4 mph 17.3 mph N/A   Mostly Cloudy
7:40 AM 35.6 °F 27.5 °F 28.4 °F 75% 30.01 in 10.0 mi West 11.5 mph 16.1 mph N/A   Clear
8:00 AM 35.6 °F 27.1 °F 26.6 °F 70% 30.03 in 10.0 mi West 12.7 mph 20.7 mph N/A   Clear
8:20 AM 37.4 °F 30.8 °F 26.6 °F 65% 30.03 in 10.0 mi WNW 9.2 mph - N/A   Scattered Clouds
8:40 AM 37.4 °F 30.8 °F 26.6 °F 65% 30.04 in 10.0 mi West 9.2 mph - N/A   Clear
9:00 AM 39.2 °F 31.2 °F 26.6 °F 61% 30.04 in 10.0 mi WNW 13.8 mph 20.7 mph N/A   Scattered Clouds
9:20 AM 39.2 °F 31.2 °F 26.6 °F 61% 30.04 in 10.0 mi WNW 13.8 mph 21.9 mph N/A   Clear
9:40 AM 39.2 °F 30.5 °F 26.6 °F 61% 30.04 in 10.0 mi NW 16.1 mph 21.9 mph N/A   Scattered Clouds
10:05 AM 39.2 °F 31.2 °F 26.6 °F 61% 30.05 in 10.0 mi WNW 13.8 mph 23.0 mph N/A   Scattered Clouds
10:25 AM 41.0 °F 34.7 °F 26.6 °F 57% 30.04 in 10.0 mi WNW 10.4 mph 16.1 mph N/A   Scattered Clouds
10:45 AM 42.8 °F 35.8 °F 26.6 °F 53% 30.05 in 10.0 mi WNW 13.8 mph 24.2 mph N/A   Scattered Clouds
11:05 AM 42.8 °F 35.8 °F 26.6 °F 53% 30.05 in 10.0 mi WNW 13.8 mph 21.9 mph N/A   Mostly Cloudy
11:25 AM 42.8 °F 36.2 °F 28.4 °F 57% 30.04 in 10.0 mi WNW 12.7 mph 18.4 mph N/A   Mostly Cloudy
11:45 AM 42.8 °F 36.2 °F 26.6 °F 53% 30.04 in 10.0 mi WNW 12.7 mph 18.4 mph N/A   Overcast
12:05 PM 42.8 °F 35.4 °F 26.6 °F 53% 30.04 in 10.0 mi WNW 15.0 mph 19.6 mph N/A   Overcast
12:25 PM 42.8 °F 35.4 °F 26.6 °F 53% 30.04 in 10.0 mi WNW 15.0 mph 24.2 mph N/A   Overcast
1:05 PM 44.6 °F 36.9 °F 26.6 °F 49% 30.03 in 10.0 mi WNW 18.4 mph 26.5 mph N/A   Mostly Cloudy
1:25 PM 46.4 °F 39.0 °F 24.8 °F 43% 30.03 in 10.0 mi WNW 19.6 mph 27.6 mph N/A   Mostly Cloudy
1:45 PM 44.6 °F 38.1 °F 26.6 °F 49% 30.02 in 10.0 mi WNW 13.8 mph 21.9 mph N/A   Mostly Cloudy
2:05 PM 44.6 °F 37.2 °F 26.6 °F 49% 30.02 in 10.0 mi West 17.3 mph 25.3 mph N/A   Overcast
2:25 PM 44.6 °F 38.1 °F 24.8 °F 46% 30.02 in 10.0 mi WNW 13.8 mph 25.3 mph N/A   Mostly Cloudy
2:45 PM 44.6 °F 37.4 °F 21.2 °F 39% 30.02 in 10.0 mi NW 16.1 mph 19.6 mph N/A   Mostly Cloudy
3:05 PM 44.6 °F 39.2 °F 35.6 °F 71% 30.01 in 10.0 mi WNW 10.4 mph 17.3 mph N/A   Overcast
3:25 PM 44.6 °F 38.4 °F 26.6 °F 49% 30.01 in 10.0 mi WNW 12.7 mph 24.2 mph N/A   Overcast
3:45 PM 46.4 °F 39.5 °F 24.8 °F 43% 30.01 in 10.0 mi WNW 17.3 mph 24.2 mph N/A   Mostly Cloudy
4:05 PM 46.4 °F 40.7 °F 24.8 °F 43% 30.01 in 10.0 mi WNW 12.7 mph 23.0 mph N/A   Mostly Cloudy
4:25 PM 42.8 °F 36.6 °F 30.2 °F 61% 30.02 in 10.0 mi WNW 11.5 mph 31.1 mph N/A Rain Rain
4:45 PM 39.2 °F 29.8 °F 32.0 °F 75% 30.04 in 2.5 mi WNW 18.4 mph 28.8 mph 0.01 in Rain Heavy Rain
5:05 PM 39.2 °F 31.2 °F 35.6 °F 87% 30.03 in 10.0 mi WNW 13.8 mph 19.6 mph N/A   Mostly Cloudy
5:25 PM 42.8 °F 37.0 °F 33.8 °F 70% 30.03 in 10.0 mi West 10.4 mph 21.9 mph N/A   Mostly Cloudy
5:45 PM 42.8 °F 36.6 °F 32.0 °F 66% 30.03 in 10.0 mi WNW 11.5 mph 17.3 mph N/A   Scattered Clouds
6:05 PM 44.6 °F 38.1 °F 28.4 °F 53% 30.03 in 10.0 mi WNW 13.8 mph 20.7 mph N/A   Clear
6:25 PM 44.6 °F 38.8 °F 26.6 °F 49% 30.03 in 10.0 mi WNW 11.5 mph 19.6 mph N/A   Scattered Clouds
7:05 PM 42.8 °F 38.0 °F 26.6 °F 53% 30.04 in 10.0 mi WNW 8.1 mph - N/A   Scattered Clouds
7:25 PM 42.8 °F 40.1 °F 26.6 °F 53% 30.05 in 10.0 mi WNW 4.6 mph - N/A   Scattered Clouds
7:45 PM 41.0 °F 36.4 °F 26.6 °F 57% 30.06 in 10.0 mi WNW 6.9 mph - N/A   Scattered Clouds
8:00 PM 41.0 °F 38.0 °F 26.6 °F 57% 30.06 in 10.0 mi WNW 4.6 mph - N/A   Scattered Clouds
8:20 PM 39.2 °F 34.2 °F 26.6 °F 61% 30.07 in 10.0 mi WNW 6.9 mph - N/A   Scattered Clouds
9:05 PM 39.2 °F 33.6 °F 26.6 °F 61% 30.08 in 10.0 mi West 8.1 mph - N/A   Clear
9:25 PM 39.2 °F 34.2 °F 26.6 °F 61% 30.08 in 10.0 mi West 6.9 mph - N/A   Scattered Clouds
9:45 PM 37.4 °F 32.1 °F 28.4 °F 70% 30.08 in 10.0 mi WNW 6.9 mph - N/A   Scattered Clouds
10:05 PM 37.4 °F 32.8 °F 28.4 °F 70% 30.09 in 10.0 mi WNW 5.8 mph - N/A   Scattered Clouds
10:25 PM 37.4 °F 32.8 °F 28.4 °F 70% 30.09 in 10.0 mi West 5.8 mph - N/A   Mostly Cloudy
10:45 PM 39.2 °F 30.5 °F 26.6 °F 61% 30.09 in 10.0 mi WNW 16.1 mph - N/A   Overcast
11:05 PM 37.4 °F 30.3 °F 28.4 °F 70% 30.09 in 10.0 mi West 10.4 mph 17.3 mph N/A   Overcast
11:25 PM 37.4 °F 32.1 °F 28.4 °F 70% 30.09 in 10.0 mi WNW 6.9 mph 10.4 mph N/A   Mostly Cloudy
11:45 PM 37.4 °F 30.8 °F 28.4 °F 70% 30.09 in 10.0 mi West 9.2 mph - N/A   Scattered Clouds